Time;durP1;ratioP1;P1;durP2;ratioP2;P2;SDS_P1;SDS_P2;PMS_P1;PMS_P2;Temp;Humidity;BMP_temperature;BMP_pressure;BME280_temperature;BME280_humidity;BME280_pressure;Samples;Min_cycle;Max_cycle;Signal;HPM_P1;HPM_P2
2022/07/13 00:00:31;;;;;;;0.53;0.50;;;;;;;20.26;nan;101169.75;5027950;28;20910;-69
2022/07/13 00:02:56;;;;;;;1.05;0.63;;;;;;;20.19;nan;101171.56;5029694;28;20902;-69
2022/07/13 00:05:21;;;;;;;0.82;0.60;;;;;;;20.19;nan;101163.50;5029377;28;20030;-69
2022/07/13 00:07:46;;;;;;;1.27;0.70;;;;;;;20.18;nan;101169.94;5028660;28;20490;-69
2022/07/13 00:10:12;;;;;;;0.88;0.60;;;;;;;20.16;nan;101167.44;5029777;28;20053;-69
2022/07/13 00:12:38;;;;;;;0.85;0.50;;;;;;;20.13;nan;101162.47;5029206;28;20037;-69
2022/07/13 00:15:04;;;;;;;0.55;0.55;;;;;;;20.07;nan;101166.78;5028344;28;20041;-69
2022/07/13 00:17:29;;;;;;;2.20;0.57;;;;;;;20.03;nan;101165.50;5028904;28;20029;-69
2022/07/13 00:19:54;;;;;;;0.90;0.50;;;;;;;19.93;nan;101165.88;5029699;28;20083;-69
2022/07/13 00:22:20;;;;;;;0.70;0.50;;;;;;;19.84;nan;101160.88;5013120;28;20132;-69
2022/07/13 00:24:45;;;;;;;0.65;0.57;;;;;;;19.73;nan;101173.81;5029752;28;20512;-69
2022/07/13 00:27:10;;;;;;;1.05;0.63;;;;;;;19.63;nan;101172.47;5013662;28;20037;-69
2022/07/13 00:29:36;;;;;;;0.80;0.60;;;;;;;19.53;nan;101172.81;5029434;28;20477;-69
2022/07/13 00:32:01;;;;;;;;;;;;;;;19.42;nan;101176.00;5028613;28;20033;-68
2022/07/13 00:34:26;;;;;;;1.70;0.80;;;;;;;19.39;nan;101176.41;5028143;28;19932;-69
2022/07/13 00:36:51;;;;;;;1.38;0.70;;;;;;;19.56;nan;101182.31;5028000;28;20541;-68
2022/07/13 00:39:17;;;;;;;1.00;0.67;;;;;;;19.63;nan;101184.00;5031430;28;20409;-68
2022/07/13 00:41:46;;;;;;;1.13;0.70;;;;;;;19.55;nan;101181.50;5028714;28;20048;-69
2022/07/13 00:44:13;;;;;;;1.10;0.70;;;;;;;19.53;nan;101176.31;5025813;28;20603;-68
2022/07/13 00:46:40;;;;;;;0.93;0.60;;;;;;;19.55;nan;101170.75;5026808;28;20376;-69
2022/07/13 00:49:06;;;;;;;0.85;0.50;;;;;;;19.57;nan;101176.78;5029032;28;20034;-69
2022/07/13 00:51:31;;;;;;;2.13;0.70;;;;;;;19.57;nan;101174.09;5028597;28;20370;-69
2022/07/13 00:53:57;;;;;;;1.33;0.75;;;;;;;19.57;nan;101178.59;5032361;28;20042;-69
2022/07/13 00:56:24;;;;;;;0.88;0.70;;;;;;;19.53;nan;101176.31;5033183;28;20695;-69
2022/07/13 00:58:50;;;;;;;1.33;0.80;;;;;;;19.49;nan;101171.53;5030364;28;20410;-69
2022/07/13 01:01:16;;;;;;;1.60;0.88;;;;;;;19.47;nan;101171.75;5030287;28;20033;-69
2022/07/13 01:03:41;;;;;;;0.82;0.70;;;;;;;19.46;nan;101170.06;5036890;28;20067;-69
2022/07/13 01:06:07;;;;;;;1.52;0.70;;;;;;;19.42;nan;101166.09;5030031;28;20090;-69
2022/07/13 01:08:34;;;;;;;1.23;0.80;;;;;;;19.45;nan;101163.06;5029891;28;20049;-68
2022/07/13 01:11:00;;;;;;;1.25;0.80;;;;;;;19.50;nan;101162.47;5028128;28;20041;-69
2022/07/13 01:13:26;;;;;;;1.25;0.70;;;;;;;19.56;nan;101152.81;5028498;28;20064;-69
2022/07/13 01:15:51;;;;;;;1.50;0.82;;;;;;;19.61;nan;101147.69;5033038;28;20067;-69
2022/07/13 01:18:17;;;;;;;2.00;0.70;;;;;;;19.63;nan;101151.81;5035207;28;20029;-69
2022/07/13 01:20:43;;;;;;;1.38;0.88;;;;;;;19.63;nan;101149.13;5026534;28;20049;-69
2022/07/13 01:23:14;;;;;;;1.00;0.70;;;;;;;19.61;nan;101148.50;5028418;28;20554;-69
2022/07/13 01:25:41;;;;;;;1.10;0.80;;;;;;;19.59;nan;101144.34;5027653;28;20508;-69
2022/07/13 01:28:06;;;;;;;0.98;0.70;;;;;;;19.55;nan;101143.13;5027379;28;20037;-69
2022/07/13 01:30:32;;;;;;;0.75;0.55;;;;;;;19.49;nan;101137.47;5026829;28;20532;-69
2022/07/13 01:32:57;;;;;;;0.80;0.60;;;;;;;19.45;nan;101138.06;5027909;28;20029;-69
2022/07/13 01:35:23;;;;;;;0.90;0.70;;;;;;;19.41;nan;101134.13;5017219;28;20049;-69
2022/07/13 01:37:50;;;;;;;0.82;0.70;;;;;;;19.39;nan;101133.50;5028328;28;20036;-69
2022/07/13 01:40:16;;;;;;;1.35;0.60;;;;;;;19.37;nan;101130.19;5025335;28;20039;-69
2022/07/13 01:42:44;;;;;;;0.80;0.70;;;;;;;19.35;nan;101130.34;5029121;28;20120;-69
2022/07/13 01:45:11;;;;;;;1.00;0.57;;;;;;;19.34;nan;101126.03;5027450;28;20489;-69
2022/07/13 01:47:48;;;;;;;0.70;0.60;;;;;;;19.30;nan;101130.13;5028074;28;20094;-69
2022/07/13 01:50:16;;;;;;;0.75;0.60;;;;;;;19.26;nan;101129.69;5023514;28;20124;-69
2022/07/13 01:52:42;;;;;;;0.90;0.70;;;;;;;19.21;nan;101128.59;5026910;28;20061;-69
2022/07/13 01:55:09;;;;;;;0.85;0.70;;;;;;;19.12;nan;101121.75;5028953;28;20069;-68
2022/07/13 01:57:35;;;;;;;0.98;0.80;;;;;;;19.05;nan;101124.38;5028746;28;20436;-68
2022/07/13 02:00:19;;;;;;;0.70;0.57;;;;;;;18.98;nan;101120.78;5027303;28;20056;-69
2022/07/13 02:02:46;;;;;;;0.65;0.57;;;;;;;18.91;nan;101118.06;5026424;28;20048;-70
2022/07/13 02:05:12;;;;;;;1.10;0.60;;;;;;;18.83;nan;101110.13;5026871;28;20370;-69
2022/07/13 02:07:38;;;;;;;0.88;0.65;;;;;;;18.75;nan;101107.56;5025908;28;20044;-69
2022/07/13 02:10:05;;;;;;;1.15;0.70;;;;;;;18.68;nan;101115.53;5027482;28;20037;-69
2022/07/13 02:12:30;;;;;;;1.25;0.80;;;;;;;18.61;nan;101115.44;5026879;28;20038;-69
2022/07/13 02:14:55;;;;;;;;;;;;;;;18.54;nan;101111.03;5026443;28;20410;-69
2022/07/13 02:17:21;;;;;;;0.73;0.63;;;;;;;18.50;nan;101117.81;5027847;28;20370;-69
2022/07/13 02:19:46;;;;;;;1.40;0.70;;;;;;;18.47;nan;101119.00;5026449;28;20033;-69
2022/07/13 02:22:11;;;;;;;2.67;0.88;;;;;;;18.48;nan;101117.19;5028230;28;20036;-67
2022/07/13 02:24:37;;;;;;;1.75;0.80;;;;;;;18.50;nan;101115.16;5030851;28;20041;-67
2022/07/13 02:27:02;;;;;;;1.90;0.88;;;;;;;18.54;nan;101105.69;5014950;28;20033;-67
2022/07/13 02:29:28;;;;;;;1.92;0.90;;;;;;;18.54;nan;101111.03;5032423;28;20072;-67
2022/07/13 02:31:53;;;;;;;0.88;0.77;;;;;;;18.50;nan;101112.47;5031595;28;20993;-67
2022/07/13 02:34:18;;;;;;;1.48;1.10;;;;;;;18.43;nan;101110.53;5031787;28;20036;-67
2022/07/13 02:36:44;;;;;;;1.15;0.77;;;;;;;18.37;nan;101105.91;5030367;28;20041;-67
2022/07/13 02:39:09;;;;;;;1.45;0.90;;;;;;;18.33;nan;101104.66;5031743;28;20155;-67
2022/07/13 02:41:34;;;;;;;1.20;0.70;;;;;;;18.27;nan;101107.25;5031540;28;20685;-67
2022/07/13 02:43:59;;;;;;;1.50;0.85;;;;;;;18.21;nan;101111.50;5032423;28;20116;-67
2022/07/13 02:46:25;;;;;;;1.15;0.90;;;;;;;18.17;nan;101111.06;5033181;28;20124;-67
2022/07/13 02:48:50;;;;;;;1.40;0.93;;;;;;;18.11;nan;101111.78;5032398;28;20041;-67
2022/07/13 02:51:15;;;;;;;1.05;0.80;;;;;;;18.07;nan;101109.66;5032627;28;20096;-67
2022/07/13 02:53:41;;;;;;;1.27;0.87;;;;;;;18.00;nan;101099.72;5035584;28;20139;-67
2022/07/13 02:56:07;;;;;;;2.53;1.20;;;;;;;17.97;nan;101099.25;5029379;28;20285;-67
2022/07/13 02:58:32;;;;;;;3.13;1.30;;;;;;;17.96;nan;101094.94;5030734;28;20616;-67
2022/07/13 03:00:58;;;;;;;3.55;1.20;;;;;;;17.98;nan;101095.59;5030794;28;20107;-67
2022/07/13 03:03:23;;;;;;;2.75;1.40;;;;;;;18.00;nan;101090.88;5031391;28;20124;-67
2022/07/13 03:05:48;;;;;;;1.95;1.00;;;;;;;18.00;nan;101086.34;5031082;28;20379;-67
2022/07/13 03:08:14;;;;;;;1.95;1.10;;;;;;;18.02;nan;101078.16;5031545;28;20137;-68
2022/07/13 03:10:39;;;;;;;2.35;1.30;;;;;;;18.04;nan;101078.75;5031714;28;20450;-67
2022/07/13 03:13:04;;;;;;;1.73;1.13;;;;;;;18.07;nan;101080.22;5031975;28;20045;-67
2022/07/13 03:15:30;;;;;;;1.42;0.90;;;;;;;18.07;nan;101082.91;5029954;28;20041;-67
2022/07/13 03:17:55;;;;;;;2.50;1.55;;;;;;;18.01;nan;101082.66;5031691;28;20056;-67
2022/07/13 03:20:20;;;;;;;2.10;1.40;;;;;;;17.98;nan;101076.84;5031323;28;21678;-68
2022/07/13 03:22:48;;;;;;;3.42;1.20;;;;;;;17.98;nan;101069.66;5030902;28;20391;-67
2022/07/13 03:25:14;;;;;;;3.10;1.10;;;;;;;18.01;nan;101076.47;5030707;28;20044;-67
2022/07/13 03:27:39;;;;;;;2.88;1.35;;;;;;;17.98;nan;101083.03;5031744;28;20037;-67
2022/07/13 03:30:05;;;;;;;1.85;1.20;;;;;;;17.92;nan;101088.28;5031725;28;20056;-67
2022/07/13 03:32:30;;;;;;;2.67;1.50;;;;;;;17.81;nan;101090.44;5031010;28;20045;-67
2022/07/13 03:34:56;;;;;;;2.00;1.10;;;;;;;17.88;nan;101098.53;5029630;28;20414;-67
2022/07/13 03:37:22;;;;;;;1.80;1.20;;;;;;;17.89;nan;101105.53;5029868;28;20938;-67
2022/07/13 03:39:47;;;;;;;1.42;1.10;;;;;;;17.71;nan;101111.25;5029756;28;20287;-67
2022/07/13 03:42:12;;;;;;;1.77;1.17;;;;;;;17.60;nan;101107.19;5029598;28;20137;-67
2022/07/13 03:44:38;;;;;;;2.70;1.50;;;;;;;17.55;nan;101114.09;5033651;28;20045;-67
2022/07/13 03:47:03;;;;;;;1.10;0.90;;;;;;;17.69;nan;101099.09;5028715;28;20954;-67
2022/07/13 03:49:29;;;;;;;2.05;1.20;;;;;;;17.64;nan;101104.97;5031068;28;20037;-67
2022/07/13 03:51:54;;;;;;;2.22;1.67;;;;;;;17.61;nan;101114.22;5030698;28;20041;-68
2022/07/13 03:54:19;;;;;;;1.67;1.20;;;;;;;17.75;nan;101109.84;5028659;28;20531;-69
2022/07/13 03:56:45;;;;;;;2.05;1.40;;;;;;;17.72;nan;101104.88;5028602;28;20033;-69
2022/07/13 03:59:10;;;;;;;;;;;;;;;17.76;nan;101114.19;5030573;28;20045;-69
2022/07/13 04:01:35;;;;;;;2.28;1.27;;;;;;;17.84;nan;101118.66;5030211;28;19917;-68
2022/07/13 04:04:00;;;;;;;1.73;1.00;;;;;;;17.92;nan;101110.50;5029087;28;20040;-69
2022/07/13 04:06:26;;;;;;;1.38;1.00;;;;;;;18.00;nan;101114.97;5028548;28;20041;-69
2022/07/13 04:08:51;;;;;;;1.27;0.90;;;;;;;18.07;nan;101110.53;5029003;28;20128;-69
2022/07/13 04:11:17;;;;;;;1.63;1.00;;;;;;;18.07;nan;101107.00;5029468;28;20280;-69
2022/07/13 04:13:43;;;;;;;1.90;1.17;;;;;;;18.12;nan;101107.28;5029592;28;20037;-69
2022/07/13 04:16:08;;;;;;;1.40;1.05;;;;;;;18.19;nan;101106.34;5028629;28;20036;-69
2022/07/13 04:18:33;;;;;;;1.07;0.80;;;;;;;18.39;nan;101103.06;5028437;28;20411;-68
2022/07/13 04:20:59;;;;;;;1.00;0.80;;;;;;;18.35;nan;101101.78;5028894;28;20816;-68
2022/07/13 04:23:24;;;;;;;1.20;0.82;;;;;;;18.32;nan;101100.31;5030572;28;20037;-69
2022/07/13 04:25:50;;;;;;;1.10;0.77;;;;;;;18.46;nan;101099.44;5026294;28;20415;-71
2022/07/13 04:28:15;;;;;;;2.13;0.90;;;;;;;18.38;nan;101106.78;5028310;28;20113;-68
2022/07/13 04:30:40;;;;;;;0.85;0.70;;;;;;;18.32;nan;101107.50;5028548;28;20467;-69
2022/07/13 04:33:06;;;;;;;1.85;0.90;;;;;;;18.28;nan;101107.03;5028692;28;20037;-68
2022/07/13 04:35:31;;;;;;;1.70;0.80;;;;;;;18.46;nan;101106.66;5027418;28;21173;-68
2022/07/13 04:37:56;;;;;;;1.27;0.90;;;;;;;18.46;nan;101095.94;5013971;28;20037;-68
2022/07/13 04:40:22;;;;;;;1.02;0.73;;;;;;;18.54;nan;101097.66;5028562;28;20042;-70
2022/07/13 04:42:47;;;;;;;1.55;0.80;;;;;;;18.62;nan;101086.84;5029311;28;20041;-69
2022/07/13 04:45:12;;;;;;;1.23;0.90;;;;;;;18.77;nan;101087.63;5012907;28;20397;-71
2022/07/13 04:47:38;;;;;;;1.25;0.93;;;;;;;18.88;nan;101089.78;5030581;28;20314;-70
2022/07/13 04:50:04;;;;;;;2.00;0.90;;;;;;;19.01;nan;101083.69;5030462;28;20500;-69
2022/07/13 04:52:29;;;;;;;;;;;;;;;19.12;nan;101084.22;5029762;28;20064;-69
2022/07/13 04:54:55;;;;;;;1.00;0.87;;;;;;;19.28;nan;101087.44;5029834;28;20366;-69
2022/07/13 04:57:20;;;;;;;;;;;;;;;19.40;nan;101086.88;5030971;28;20042;-69
2022/07/13 04:59:45;;;;;;;1.00;0.80;;;;;;;19.57;nan;101082.03;5029040;28;20368;-69
2022/07/13 05:02:11;;;;;;;0.93;0.60;;;;;;;19.87;nan;101086.13;5026738;28;20918;-69
2022/07/13 05:04:36;;;;;;;;;;;;;;;19.85;nan;101079.31;5029296;28;20052;-69
2022/07/13 05:07:01;;;;;;;1.63;0.90;;;;;;;19.88;nan;101078.94;5014187;28;20353;-69
2022/07/13 05:09:27;;;;;;;0.80;0.60;;;;;;;20.11;nan;101073.22;5026503;28;20419;-69
2022/07/13 05:11:52;;;;;;;;;;;;;;;20.05;nan;101082.94;5028366;28;20576;-69
2022/07/13 05:14:17;;;;;;;;;;;;;;;20.06;nan;101081.88;5028855;28;19917;-69
2022/07/13 05:16:43;;;;;;;0.93;0.60;;;;;;;20.16;nan;101086.88;5028026;28;19928;-70
2022/07/13 05:19:08;;;;;;;;;;;;;;;20.22;nan;101082.56;5027503;28;20282;-69
2022/07/13 05:21:33;;;;;;;;;;;;;;;20.33;nan;101079.28;5028737;28;19994;-69
2022/07/13 05:23:58;;;;;;;;;;;;;;;20.46;nan;101090.06;5028299;28;20296;-69
2022/07/13 05:26:24;;;;;;;;;;;;;;;20.61;nan;101091.78;5028168;28;19971;-68
2022/07/13 05:28:49;;;;;;;;;;;;;;;20.75;nan;101093.47;5027939;28;20572;-69
2022/07/13 05:31:14;;;;;;;;;;;;;;;20.87;nan;101097.19;5027918;28;19992;-70
2022/07/13 05:33:40;;;;;;;;;;;;;;;21.03;nan;101097.81;5028977;28;19917;-69
2022/07/13 05:36:05;;;;;;;;;;;;;;;21.23;nan;101101.31;5027506;28;20328;-70
2022/07/13 05:38:30;;;;;;;;;;;;;;;21.33;nan;101095.50;5029021;28;19924;-69
2022/07/13 05:40:56;;;;;;;;;;;;;;;21.43;nan;101104.03;5041864;28;19936;-69
2022/07/13 05:43:21;;;;;;;;;;;;;;;21.44;nan;101102.16;5030523;28;19917;-70
2022/07/13 05:45:46;;;;;;;;;;;;;;;21.49;nan;101097.78;5030383;28;19917;-69
2022/07/13 05:48:11;;;;;;;;;;;;;;;21.56;nan;101111.25;5029868;28;20497;-69
2022/07/13 05:50:37;;;;;;;;;;;;;;;21.69;nan;101115.75;5030095;28;19939;-69
2022/07/13 05:53:02;;;;;;;;;;;;;;;21.86;nan;101116.97;5030905;28;19921;-69
2022/07/13 05:55:27;;;;;;;;;;;;;;;22.01;nan;101108.63;5042701;28;19949;-69
2022/07/13 05:57:53;;;;;;;;;;;;;;;22.20;nan;101096.97;5030496;28;19971;-69
2022/07/13 06:00:18;;;;;;;;;;;;;;;22.42;nan;101092.06;5029602;28;19928;-69
2022/07/13 06:02:43;;;;;;;;;;;;;;;22.48;nan;101098.50;5029591;28;19963;-69
2022/07/13 06:05:12;;;;;;;;;;;;;;;22.61;nan;101106.47;5022161;28;19932;-70
2022/07/13 06:07:37;;;;;;;;;;;;;;;22.80;nan;101099.28;5030326;28;19942;-69
2022/07/13 06:10:03;;;;;;;;;;;;;;;23.01;nan;101095.44;5029496;28;20007;-69
2022/07/13 06:12:28;;;;;;;1.05;0.80;;;;;;;23.19;nan;101097.38;5011380;28;20369;-69
2022/07/13 06:14:54;;;;;;;1.92;0.85;;;;;;;23.42;nan;101095.91;5029289;28;20034;-69
2022/07/13 06:17:23;;;;;;;1.30;0.70;;;;;;;23.84;nan;101105.03;5027877;28;20546;-69
2022/07/13 06:19:49;;;;;;;1.10;0.70;;;;;;;23.94;nan;101104.50;5029624;28;20379;-69
2022/07/13 06:22:15;;;;;;;;;;;;;;;23.98;nan;101094.91;5029242;28;20034;-70
2022/07/13 06:24:41;;;;;;;;;;;;;;;23.85;nan;101092.34;5029737;28;19921;-70
2022/07/13 06:27:06;;;;;;;;;;;;;;;23.81;nan;101089.28;5030163;28;19917;-70
2022/07/13 06:29:32;;;;;;;;;;;;;;;23.95;nan;101090.78;5029853;28;19925;-70
2022/07/13 06:31:57;;;;;;;;;;;;;;;24.11;nan;101083.09;5029746;28;19964;-69
2022/07/13 06:34:22;;;;;;;;;;;;;;;24.17;nan;101095.69;5029556;28;20017;-70
2022/07/13 06:36:47;;;;;;;;;;;;;;;24.24;nan;101099.13;5030199;28;20276;-70
2022/07/13 06:39:12;;;;;;;;;;;;;;;24.37;nan;101095.41;5030986;28;19925;-70
2022/07/13 06:41:37;;;;;;;;;;;;;;;24.57;nan;101089.75;5032378;28;19917;-70
2022/07/13 06:44:03;;;;;;;;;;;;;;;24.60;nan;101092.00;5052761;28;19974;-69
2022/07/13 06:46:28;;;;;;;;;;;;;;;24.57;nan;101090.59;5030386;28;19920;-69
2022/07/13 06:48:53;;;;;;;;;;;;;;;24.64;nan;101092.34;5013630;28;19998;-70
2022/07/13 06:51:19;;;;;;;2.73;0.93;;;;;;;24.86;nan;101093.47;5028879;28;19925;-70
2022/07/13 06:53:44;;;;;;;1.83;0.90;;;;;;;25.01;nan;101093.00;5031699;28;20367;-69
2022/07/13 06:56:09;;;;;;;;;;;;;;;25.08;nan;101096.44;5029593;28;20029;-70
2022/07/13 06:58:34;;;;;;;;;;;;;;;25.37;nan;101094.69;5029700;28;19928;-70
2022/07/13 07:00:59;;;;;;;;;;;;;;;25.58;nan;101092.44;5028666;28;20573;-70
2022/07/13 07:03:25;;;;;;;3.17;0.87;;;;;;;25.71;nan;101097.59;5029722;28;19963;-70
2022/07/13 07:05:51;;;;;;;1.55;0.75;;;;;;;25.84;nan;101091.09;5029082;28;20232;-70
2022/07/13 07:08:17;;;;;;;3.60;0.80;;;;;;;26.01;nan;101099.31;5029885;28;20037;-70
2022/07/13 07:10:42;;;;;;;1.90;0.80;;;;;;;26.23;nan;101094.88;5031070;28;20044;-70
2022/07/13 07:13:08;;;;;;;1.58;0.77;;;;;;;26.54;nan;101091.94;5032683;28;20033;-70
2022/07/13 07:15:34;;;;;;;2.05;0.70;;;;;;;27.15;nan;101086.66;5032253;28;20030;-70
2022/07/13 07:17:59;;;;;;;1.25;0.70;;;;;;;27.84;nan;101092.59;5032036;28;20037;-70
2022/07/13 07:20:25;;;;;;;1.10;0.60;;;;;;;28.53;nan;101092.00;5031904;28;20033;-70
2022/07/13 07:22:50;;;;;;;0.90;0.70;;;;;;;29.14;nan;101093.59;5024206;28;20061;-70
2022/07/13 07:25:15;;;;;;;1.27;0.70;;;;;;;29.73;nan;101095.31;5032092;28;20049;-69
2022/07/13 07:27:42;;;;;;;3.63;1.00;;;;;;;30.15;nan;101091.63;5032374;28;20102;-69
2022/07/13 07:30:08;;;;;;;3.05;0.80;;;;;;;30.04;nan;101097.06;5031751;28;20052;-70
2022/07/13 07:32:33;;;;;;;2.38;0.90;;;;;;;30.21;nan;101096.81;5032216;28;20053;-70
2022/07/13 07:34:59;;;;;;;2.10;0.80;;;;;;;30.10;nan;101097.06;5032210;28;20068;-71
2022/07/13 07:37:24;;;;;;;1.60;0.75;;;;;;;30.20;nan;101094.34;5032211;28;20478;-71
2022/07/13 07:39:50;;;;;;;2.63;0.90;;;;;;;30.54;nan;101091.19;5030549;28;20036;-71
2022/07/13 07:42:16;;;;;;;1.55;0.70;;;;;;;30.77;nan;101093.34;5030741;28;20961;-71
2022/07/13 07:44:42;;;;;;;1.88;0.90;;;;;;;30.97;nan;101100.75;5032252;28;20037;-70
2022/07/13 07:47:08;;;;;;;1.63;0.80;;;;;;;30.98;nan;101101.56;5032098;28;20033;-70
2022/07/13 07:49:34;;;;;;;1.25;0.77;;;;;;;31.07;nan;101100.75;5020645;28;20084;-70
2022/07/13 07:52:00;;;;;;;0.90;0.60;;;;;;;31.48;nan;101092.47;5031456;28;20033;-70
2022/07/13 07:54:25;;;;;;;1.15;0.55;;;;;;;31.74;nan;101087.72;5032167;28;20045;-71
2022/07/13 07:56:50;;;;;;;1.52;0.70;;;;;;;31.68;nan;101085.31;5028808;28;20520;-71
2022/07/13 07:59:16;;;;;;;5.97;1.20;;;;;;;31.48;nan;101078.81;5016621;28;20034;-71
2022/07/13 08:01:42;;;;;;;3.22;1.00;;;;;;;31.23;nan;101087.88;5014694;28;20049;-71
2022/07/13 08:04:07;;;;;;;1.15;0.65;;;;;;;31.27;nan;101096.31;5016432;28;20037;-70
2022/07/13 08:06:33;;;;;;;2.38;0.90;;;;;;;31.29;nan;101089.47;5030447;28;20056;-71
2022/07/13 08:08:58;;;;;;;2.53;0.95;;;;;;;31.41;nan;101085.66;5028380;28;20041;-71
2022/07/13 08:11:23;;;;;;;1.33;0.60;;;;;;;32.03;nan;101080.78;5028607;28;20048;-71
2022/07/13 08:13:51;;;;;;;0.30;0.30;;;;;;;32.76;nan;101093.72;5029452;28;20037;-71
2022/07/13 08:16:17;;;;;;;2.45;0.77;;;;;;;33.38;nan;101096.69;5028669;28;20037;-71
2022/07/13 08:18:45;;;;;;;1.88;0.70;;;;;;;33.93;nan;101091.63;5014554;28;20053;-71
2022/07/13 08:21:11;;;;;;;;;;;;;;;34.20;nan;101092.94;5028396;28;20033;-71
2022/07/13 08:23:52;;;;;;;2.80;0.70;;;;;;;34.77;nan;101090.94;5028837;28;20384;-71
2022/07/13 08:26:19;;;;;;;1.60;0.80;;;;;;;35.39;nan;101089.84;5029243;28;20743;-70
2022/07/13 08:28:45;;;;;;;2.33;1.00;;;;;;;35.98;nan;101085.31;5030916;28;20118;-70
2022/07/13 08:31:13;;;;;;;1.88;0.70;;;;;;;36.14;nan;101094.88;5030336;28;20140;-70
2022/07/13 08:39:08;;;;;;;1.95;0.60;;;;;;;35.96;nan;101092.25;5027672;28;20052;-70
2022/07/13 08:41:34;;;;;;;1.65;0.60;;;;;;;36.49;nan;101089.63;5031155;28;20053;-70
2022/07/13 08:44:00;;;;;;;;;;;;;;;36.88;nan;101085.38;5040689;28;20087;-66
2022/07/13 08:46:25;;;;;;;;;;;;;;;37.34;nan;101081.38;5030657;28;19931;-69
2022/07/13 08:48:53;;;;;;;;;;;;;;;37.58;nan;101086.50;5013985;28;20281;-70
2022/07/13 08:51:20;;;;;;;2.70;0.93;;;;;;;37.20;nan;101078.72;5029177;28;19923;-69
2022/07/13 08:53:45;;;;;;;3.80;0.80;;;;;;;36.80;nan;101072.34;5034567;28;20091;-69
2022/07/13 08:56:10;;;;;;;2.17;0.77;;;;;;;36.92;nan;101078.13;5028083;28;20029;-70
2022/07/13 08:58:36;;;;;;;3.42;0.70;;;;;;;37.71;nan;101079.25;5030694;28;20045;-70
2022/07/13 09:01:01;;;;;;;;;;;;;;;38.56;nan;101064.16;5031066;28;20482;-70
2022/07/13 09:03:31;;;;;;;;;;;;;;;39.89;nan;101074.00;5021859;28;19947;-70
2022/07/13 09:05:56;;;;;;;1.77;0.65;;;;;;;39.43;nan;101061.94;5032347;28;19917;-70
2022/07/13 09:08:22;;;;;;;1.48;0.63;;;;;;;39.37;nan;101073.50;5031270;28;20556;-69
2022/07/13 09:10:56;;;;;;;1.73;0.57;;;;;;;39.07;nan;101065.97;5031307;28;20205;-69
2022/07/13 09:13:39;;;;;;;2.35;0.63;;;;;;;38.69;nan;101067.84;5031401;28;20387;-70
2022/07/13 09:16:22;;;;;;;1.13;0.60;;;;;;;38.47;nan;101069.69;5031775;28;20034;-70
2022/07/13 09:18:56;;;;;;;1.25;0.77;;;;;;;37.83;nan;101065.63;5031071;28;20501;-69
2022/07/13 09:21:23;;;;;;;1.52;0.70;;;;;;;37.39;nan;101070.19;5030184;28;20044;-70
2022/07/13 09:23:59;;;;;;;1.98;0.52;;;;;;;37.52;nan;101064.88;5027517;28;20052;-70
2022/07/13 09:26:46;;;;;;;0.68;0.52;;;;;;;37.53;nan;101064.59;5029034;28;23056;-69
2022/07/13 09:29:11;;;;;;;3.13;0.50;;;;;;;37.80;nan;101063.50;5024233;28;20106;-70
2022/07/13 09:31:55;;;;;;;1.30;0.68;;;;;;;37.95;nan;101058.63;5028361;28;20481;-70
2022/07/13 09:34:43;;;;;;;3.40;0.88;;;;;;;37.36;nan;101059.81;5012267;28;20409;-69
2022/07/13 09:37:09;;;;;;;10.32;1.10;;;;;;;37.71;nan;101048.06;5020078;28;20120;-69
2022/07/13 09:39:35;;;;;;;5.32;1.10;;;;;;;38.79;nan;101046.22;5034285;28;20041;-70
2022/07/13 09:42:00;;;;;;;9.37;1.20;;;;;;;39.50;nan;101053.09;5029450;28;20029;-70
2022/07/13 09:47:11;;;;;;;0.88;0.47;;;;;;;40.09;nan;101057.72;5025615;28;20418;-69
2022/07/13 09:49:41;;;;;;;1.88;0.57;;;;;;;39.56;nan;101054.50;5028737;28;20069;-69
2022/07/13 09:52:08;;;;;;;0.50;0.40;;;;;;;38.90;nan;101057.72;5026604;28;20677;-70
2022/07/13 09:54:36;;;;;;;1.00;0.60;;;;;;;39.14;nan;101062.72;5029693;28;20046;-69
2022/07/13 09:57:08;;;;;;;0.73;0.50;;;;;;;38.85;nan;101052.38;5028664;28;20037;-70
2022/07/13 09:59:36;;;;;;;0.98;0.60;;;;;;;39.49;nan;101048.69;5028071;28;20030;-69
2022/07/13 10:02:02;;;;;;;0.82;0.50;;;;;;;39.78;nan;101045.06;5026817;28;20113;-69
2022/07/13 10:04:29;;;;;;;0.80;0.50;;;;;;;41.06;nan;101039.72;5027681;28;20030;-70
2022/07/13 10:06:55;;;;;;;1.95;0.50;;;;;;;41.91;nan;101049.13;5028223;28;20064;-70
2022/07/13 10:09:25;;;;;;;0.43;0.40;;;;;;;42.47;nan;101039.19;5028808;28;20080;-70
2022/07/13 10:11:50;;;;;;;0.73;0.50;;;;;;;42.94;nan;101044.81;5027240;28;20042;-70
2022/07/13 10:14:18;;;;;;;0.77;0.40;;;;;;;43.47;nan;101039.69;5026346;28;20095;-70
2022/07/13 10:16:43;;;;;;;0.65;0.43;;;;;;;42.49;nan;101045.22;5027356;28;20108;-70
2022/07/13 10:19:10;;;;;;;2.10;0.50;;;;;;;41.39;nan;101034.06;5027462;28;20523;-70
2022/07/13 10:21:54;;;;;;;2.15;0.55;;;;;;;42.50;nan;101035.69;5027416;28;20034;-70
2022/07/13 10:24:20;;;;;;;1.42;0.60;;;;;;;43.83;nan;101034.91;5024769;28;20042;-70
2022/07/13 10:26:49;;;;;;;2.25;0.80;;;;;;;44.27;nan;101047.75;5027372;28;20037;-70
2022/07/13 10:29:15;;;;;;;4.47;1.00;;;;;;;44.41;nan;101039.69;5020917;28;20053;-70
2022/07/13 10:31:42;;;;;;;2.20;0.60;;;;;;;44.39;nan;101032.84;5025963;28;20419;-70
2022/07/13 10:34:10;;;;;;;0.55;0.43;;;;;;;44.36;nan;101025.97;5024422;28;20598;-70
2022/07/13 10:36:49;;;;;;;3.25;0.70;;;;;;;44.58;nan;101040.38;5026953;28;20044;-70
2022/07/13 10:39:15;;;;;;;0.80;0.60;;;;;;;44.84;nan;101040.44;5026433;28;20140;-70
2022/07/13 10:41:58;;;;;;;2.63;0.70;;;;;;;45.29;nan;101044.34;5029900;28;20128;-71
2022/07/13 10:44:38;;;;;;;2.60;0.50;;;;;;;44.83;nan;101038.00;5032509;28;20456;-67
2022/07/13 10:47:11;;;;;;;4.25;0.70;;;;;;;45.58;nan;101030.78;5027108;28;20041;-67
2022/07/13 10:49:46;;;;;;;1.38;0.60;;;;;;;45.54;nan;101027.91;5015897;28;20052;-68
2022/07/13 10:52:21;;;;;;;2.63;0.60;;;;;;;44.51;nan;101022.31;5031709;28;20087;-70
2022/07/13 10:55:07;;;;;;;1.80;0.50;;;;;;;43.10;nan;101019.75;5032929;28;20029;-70
2022/07/13 10:57:37;;;;;;;0.60;0.47;;;;;;;42.34;nan;101016.19;5021784;28;20045;-69
2022/07/13 11:00:43;;;;;;;1.05;0.47;;;;;;;40.95;nan;101014.44;5031201;28;20029;-71
2022/07/13 11:03:24;;;;;;;4.80;1.05;;;;;;;40.32;nan;101011.06;5015498;28;20083;-70
2022/07/13 11:06:07;;;;;;;2.05;0.73;;;;;;;39.80;nan;101001.25;5028720;28;20045;-70
2022/07/13 11:08:33;;;;;;;2.65;0.70;;;;;;;39.34;nan;101003.03;5030087;28;20096;-69
2022/07/13 11:11:16;;;;;;;3.22;0.80;;;;;;;38.91;nan;101003.25;5030789;28;20025;-70
2022/07/13 11:13:48;;;;;;;0.63;0.50;;;;;;;38.51;nan;100996.06;5030779;28;20029;-68
2022/07/13 11:16:14;;;;;;;0.68;0.40;;;;;;;38.35;nan;100995.75;5029409;28;20532;-69
2022/07/13 11:18:41;;;;;;;0.80;0.60;;;;;;;38.38;nan;100991.53;5030378;28;20045;-69
2022/07/13 11:21:22;;;;;;;0.65;0.40;;;;;;;38.38;nan;100988.78;5027729;28;20465;-70
2022/07/13 11:26:46;;;;;;;0.95;0.50;;;;;;;37.99;nan;100985.06;5027029;28;20524;-68
2022/07/13 11:29:35;;;;;;;2.15;0.60;;;;;;;39.27;nan;100975.88;5028459;28;20037;-70
2022/07/13 11:32:02;;;;;;;6.70;0.85;;;;;;;40.76;nan;100972.56;5013341;28;20040;-68
2022/07/13 11:34:28;;;;;;;5.35;0.40;;;;;;;42.83;nan;100986.09;5028452;28;20100;-68
2022/07/13 11:36:55;;;;;;;0.90;0.40;;;;;;;42.65;nan;100984.84;5028479;28;20092;-68
2022/07/13 11:39:28;;;;;;;;;;;;;;;41.41;nan;100974.66;5028115;28;20041;-68
2022/07/13 11:41:55;;;;;;;0.85;0.38;;;;;;;40.70;nan;100966.47;5011850;28;19917;-69
2022/07/13 11:44:24;;;;;;;;;;;;;;;39.88;nan;100958.84;5029724;28;20033;-68
2022/07/13 11:46:49;;;;;;;2.28;0.38;;;;;;;39.29;nan;100970.03;5028704;28;19921;-68
2022/07/13 11:49:14;;;;;;;;;;;;;;;38.60;nan;100960.13;5029301;28;20683;-68
2022/07/13 11:51:44;;;;;;;2.60;0.40;;;;;;;38.49;nan;100962.41;5027958;28;19970;-68
2022/07/13 11:54:11;;;;;;;0.60;0.40;;;;;;;38.48;nan;100957.25;5033546;28;20823;-69
2022/07/13 11:56:53;;;;;;;2.00;0.57;;;;;;;38.62;nan;100950.34;5028089;28;20041;-68
2022/07/13 11:59:38;;;;;;;0.90;0.40;;;;;;;40.02;nan;100954.97;5024247;28;20033;-69
2022/07/13 12:02:08;;;;;;;0.60;0.40;;;;;;;41.08;nan;100956.97;5029218;28;20065;-68
2022/07/13 12:04:43;;;;;;;0.37;0.30;;;;;;;40.59;nan;100948.63;5028197;28;20680;-68